Accueil
METAR-TAF:

METAR-TAF

Aéroports :

Aéroport de Dortmund

Dortmund, Allemagne

latitude: 51-31N, longitude: 007-37E, altitude: 127 m

Observation

Le bulletin a été fait il y a 22 minutes, à 20:20 UTC
Vent 9 kt de est/nord-est
Température 2°C
Humidité 87%
Pression 1019 hPa
Visibilité: 7000 m
Ciel couvert à une hauteur de 2200 ft

METAR: EDLW 212020Z 07009KT 7000 OVC022 02/00 Q1019

Heure: 21:42 (20:42 UTC)

Prévision

Le bulletin a été fait il y a 3 heures et 42 minutes, à 17:00 UTC
Prévision valable du 21 à 18 UTC au 22 à 18 UTC
Vent 7 kt de est
Visibilité 10 km ou plus
Nuages fragmentés à une hauteur de 4000 ft
Temporairement
du 21 à 20 UTC au 22 à 10 UTC
Nuages fragmentés à une hauteur de 1200 ft

TAF: EDLW 211700Z 2118/2218 08007KT 9999 BKN040 TEMPO 2120/2210 BKN012

Observations et prévisions météorologiques de plus de 4000 aéroports (messages METAR et TAF).

Les stations disponibles sont représentées par des disques jaunes et rouges sur la carte.

Passer la souris dessus pour voir le nom de la station.

Cliquer dessus pour voir les observations et prévisions météorologiques.

Pour changer de carte: cliquez sur les boutons verts avec une croix noire pour zoomer, sur le bouton vert avec un tiret pour effectuer un zoom arrière, ou sur les flèches vertes pour les cartes adjacentes.


METAR-TAF: